George Town, Cayman Islands
Current Conditions -  °F | °C
As of 5:53 PM on Tuesday 27 Jan 2015 (Local Time) from MWCR Reporting Station
Few Clouds Few Clouds  
Wind Chill: 75°   Ceiling: Unl
Heat Index: 75°   Visibility: 6mi
Dew Point: 63°   Wind: 9mph
Humidity: 65%   Direction: 340°NNW
Pressure: 30"   Gusts: NA
Location:  19.28°N, 81.39°W
Report Text: MWCR 272253Z 34008KT 310V080 9999 FEW018 24/17 Q1016 NOSIG
Loading
Personal Weather Stations






























Interactive Weather Map New forecast layout! Learn more

10-Day Weather Forecast

Advertisements
Track Severe Weather on mobile